Time;durP1;ratioP1;P1;durP2;ratioP2;P2;SDS_P1;SDS_P2;PMS_P1;PMS_P2;Temp;Humidity;BMP_temperature;BMP_pressure;BME280_temperature;BME280_humidity;BME280_pressure;Samples;Min_cycle;Max_cycle;Signal;HPM_P1;HPM_P2
2020/12/31 00:01:52;;;;;;;4.03;2.00;;;2.80;99.90;;;;;;5035385;28;20190;-74
2020/12/31 00:04:18;;;;;;;2.17;1.83;;;2.90;99.90;;;;;;5034731;28;20187;-76
2020/12/31 00:06:43;;;;;;;2.73;2.27;;;2.80;99.90;;;;;;5036773;28;20481;-75
2020/12/31 00:09:09;;;;;;;3.43;2.57;;;2.90;99.90;;;;;;5036735;28;20189;-76
2020/12/31 00:11:35;;;;;;;2.13;1.77;;;2.90;99.90;;;;;;5050482;28;20187;-76
2020/12/31 00:14:07;;;;;;;2.50;1.73;;;2.90;99.90;;;;;;5035340;28;20194;-76
2020/12/31 00:16:36;;;;;;;2.37;1.43;;;2.80;99.90;;;;;;5036829;28;20218;-76
2020/12/31 00:19:03;;;;;;;2.67;1.87;;;2.90;99.90;;;;;;5037611;28;20258;-76
2020/12/31 00:21:29;;;;;;;2.00;1.43;;;2.70;99.90;;;;;;5038105;28;20187;-76
2020/12/31 00:23:55;;;;;;;2.50;1.97;;;2.70;99.90;;;;;;5038079;28;21064;-76
2020/12/31 00:26:21;;;;;;;3.30;1.87;;;2.60;99.90;;;;;;5037089;28;20240;-75
2020/12/31 00:28:46;;;;;;;3.33;2.30;;;2.60;99.90;;;;;;5037066;28;20576;-76
2020/12/31 00:31:12;;;;;;;2.63;2.20;;;2.50;99.90;;;;;;5037350;28;20875;-76
2020/12/31 00:33:37;;;;;;;1.27;1.17;;;2.40;99.90;;;;;;5036941;28;20195;-76
2020/12/31 00:36:03;;;;;;;2.43;1.73;;;2.50;99.90;;;;;;5037940;28;20218;-76
2020/12/31 00:38:29;;;;;;;2.37;1.73;;;2.60;99.90;;;;;;5037704;28;20267;-76
2020/12/31 00:40:54;;;;;;;2.70;1.70;;;2.50;99.90;;;;;;5038089;28;20186;-76
2020/12/31 00:43:23;;;;;;;2.63;2.20;;;2.40;99.90;;;;;;5036030;28;20554;-75
2020/12/31 00:45:49;;;;;;;2.23;1.53;;;2.40;99.90;;;;;;5036773;28;20321;-75
2020/12/31 00:48:15;;;;;;;2.03;1.80;;;2.40;99.90;;;;;;5033002;28;20305;-76
2020/12/31 00:50:40;;;;;;;2.10;1.90;;;2.40;99.90;;;;;;5051638;28;20199;-76
2020/12/31 00:53:06;;;;;;;3.97;2.00;;;2.30;99.90;;;;;;5036790;28;20178;-76
2020/12/31 00:55:31;;;;;;;2.30;2.07;;;2.20;99.90;;;;;;5036059;28;20603;-76
2020/12/31 00:57:57;;;;;;;2.00;1.80;;;2.20;99.90;;;;;;5037930;28;20232;-76
2020/12/31 01:00:23;;;;;;;2.50;2.07;;;2.10;99.90;;;;;;5038398;28;20221;-76
2020/12/31 01:02:48;;;;;;;1.67;1.50;;;2.00;99.90;;;;;;5035414;28;20212;-76
2020/12/31 01:05:14;;;;;;;2.50;1.90;;;1.90;99.90;;;;;;5036874;28;20206;-76
2020/12/31 01:07:40;;;;;;;2.00;1.47;;;1.70;99.90;;;;;;5035937;28;20191;-76
2020/12/31 01:10:07;;;;;;;2.53;1.77;;;1.60;99.90;;;;;;5035655;28;20259;-75
2020/12/31 01:12:33;;;;;;;2.07;1.87;;;1.50;99.90;;;;;;5053169;28;20201;-76
2020/12/31 01:14:59;;;;;;;1.87;1.57;;;1.40;99.90;;;;;;5036300;28;20214;-76
2020/12/31 01:17:25;;;;;;;1.63;1.37;;;1.30;99.90;;;;;;5037813;28;20205;-76
2020/12/31 01:19:51;;;;;;;3.87;2.50;;;1.30;99.90;;;;;;5036432;28;20182;-76
2020/12/31 01:22:17;;;;;;;1.77;1.53;;;1.20;99.90;;;;;;5036199;28;20186;-76
2020/12/31 01:24:43;;;;;;;2.47;2.10;;;1.10;99.90;;;;;;5035477;28;20541;-76
2020/12/31 01:27:08;;;;;;;1.80;1.67;;;1.10;99.90;;;;;;5053745;28;20236;-76
2020/12/31 01:29:34;;;;;;;2.20;2.00;;;1.00;99.90;;;;;;5036012;28;20549;-76
2020/12/31 01:31:59;;;;;;;1.70;1.60;;;0.90;99.90;;;;;;5036865;28;20191;-75
2020/12/31 01:34:25;;;;;;;2.93;1.80;;;0.80;99.90;;;;;;5037146;28;20272;-76
2020/12/31 01:36:54;;;;;;;2.77;1.73;;;0.80;99.90;;;;;;5035122;28;20202;-76
2020/12/31 01:39:21;;;;;;;2.10;1.70;;;0.80;99.90;;;;;;5037159;28;20189;-76
2020/12/31 01:41:47;;;;;;;1.93;1.67;;;0.80;99.90;;;;;;5036921;28;20265;-76
2020/12/31 01:44:13;;;;;;;2.67;1.93;;;0.70;99.90;;;;;;5037158;28;20835;-75
2020/12/31 01:46:42;;;;;;;2.30;1.27;;;0.80;99.90;;;;;;5040198;28;20210;-76
2020/12/31 01:49:08;;;;;;;2.07;1.87;;;0.80;99.90;;;;;;5040014;28;20191;-76
2020/12/31 01:51:35;;;;;;;1.80;1.70;;;0.80;99.90;;;;;;5040554;28;20193;-74
2020/12/31 01:54:02;;;;;;;2.27;1.47;;;1.00;99.90;;;;;;5039887;28;20189;-76
2020/12/31 01:56:30;;;;;;;3.60;1.93;;;1.00;99.90;;;;;;5041738;28;20300;-76
2020/12/31 01:58:56;;;;;;;1.50;1.40;;;1.10;99.90;;;;;;5040857;28;20639;-75
2020/12/31 02:01:23;;;;;;;1.20;1.10;;;1.30;99.90;;;;;;5038840;28;20190;-76
2020/12/31 02:03:50;;;;;;;1.13;1.03;;;1.10;99.90;;;;;;5038063;28;20209;-75
2020/12/31 02:06:16;;;;;;;1.87;1.50;;;1.00;99.90;;;;;;5037685;28;20615;-75
2020/12/31 02:08:45;;;;;;;2.13;1.67;;;1.00;99.90;;;;;;5037431;28;20186;-76
2020/12/31 02:11:13;;;;;;;1.23;1.13;;;0.90;99.90;;;;;;5037656;28;20216;-76
2020/12/31 02:13:39;;;;;;;2.00;1.30;;;0.90;99.90;;;;;;5037901;28;20692;-75
2020/12/31 02:16:08;;;;;;;1.17;0.97;;;0.90;99.90;;;;;;5036489;28;20214;-75
2020/12/31 02:18:34;;;;;;;1.87;1.70;;;0.80;99.90;;;;;;5037587;28;20577;-76
2020/12/31 02:21:01;;;;;;;1.47;1.37;;;0.80;99.90;;;;;;5036388;28;20197;-76
2020/12/31 02:23:26;;;;;;;1.93;1.63;;;0.80;99.90;;;;;;5039175;28;20989;-75
2020/12/31 02:25:52;;;;;;;1.57;1.30;;;1.00;99.90;;;;;;5036918;28;20214;-75
2020/12/31 02:28:17;;;;;;;1.57;1.20;;;1.10;99.90;;;;;;5037862;28;20209;-76
2020/12/31 02:30:43;;;;;;;2.43;1.23;;;1.10;99.90;;;;;;5051570;28;20205;-74
2020/12/31 02:33:09;;;;;;;1.60;1.27;;;1.20;99.90;;;;;;5037065;28;20554;-75
2020/12/31 02:35:34;;;;;;;2.53;2.10;;;1.30;99.90;;;;;;5035850;28;20238;-75
2020/12/31 02:38:00;;;;;;;1.93;1.20;;;1.30;99.90;;;;;;5037469;28;20191;-75
2020/12/31 02:40:25;;;;;;;1.47;1.17;;;1.30;99.90;;;;;;5037575;28;20618;-76
2020/12/31 02:42:51;;;;;;;2.20;1.43;;;1.30;99.90;;;;;;5036962;28;20190;-75
2020/12/31 02:45:16;;;;;;;1.23;0.97;;;1.30;99.90;;;;;;5037021;28;20202;-76
2020/12/31 02:47:42;;;;;;;2.27;1.60;;;1.30;99.90;;;;;;5037555;28;20217;-76
2020/12/31 02:50:08;;;;;;;1.67;1.23;;;1.20;99.90;;;;;;5037747;28;20182;-76
2020/12/31 02:52:33;;;;;;;0.80;0.80;;;1.10;99.90;;;;;;5037330;28;20245;-76
2020/12/31 02:54:59;;;;;;;1.87;1.47;;;1.00;99.90;;;;;;5037624;28;20214;-75
2020/12/31 02:57:25;;;;;;;1.10;1.00;;;0.90;99.90;;;;;;5035844;28;20734;-76
2020/12/31 02:59:50;;;;;;;1.77;1.53;;;0.90;99.90;;;;;;5035419;28;20190;-76
2020/12/31 03:02:16;;;;;;;1.87;1.70;;;0.90;99.90;;;;;;5037719;28;20183;-76
2020/12/31 03:04:41;;;;;;;2.37;1.67;;;0.90;99.90;;;;;;5037368;28;20226;-76
2020/12/31 03:07:07;;;;;;;1.40;1.10;;;0.90;99.90;;;;;;5036426;28;20249;-76
2020/12/31 03:09:32;;;;;;;1.10;1.00;;;1.00;99.90;;;;;;5038034;28;20186;-75
2020/12/31 03:11:58;;;;;;;1.80;1.50;;;1.00;99.90;;;;;;5036574;28;20240;-76
2020/12/31 03:14:23;;;;;;;2.20;1.40;;;1.10;99.90;;;;;;5035926;28;20201;-76
2020/12/31 03:16:49;;;;;;;1.17;1.07;;;1.00;99.90;;;;;;5036241;28;20210;-76
2020/12/31 03:19:14;;;;;;;1.30;1.20;;;1.00;99.90;;;;;;5037291;28;20187;-74
2020/12/31 03:21:40;;;;;;;1.80;1.40;;;1.00;99.90;;;;;;5036248;28;20179;-76
2020/12/31 03:24:05;;;;;;;1.37;1.00;;;1.00;99.90;;;;;;5037001;28;20179;-75
2020/12/31 03:26:31;;;;;;;0.90;0.90;;;0.90;99.90;;;;;;5051587;28;20213;-75
2020/12/31 03:28:57;;;;;;;1.47;1.10;;;0.90;99.90;;;;;;5036969;28;20656;-76
2020/12/31 03:31:22;;;;;;;0.70;0.70;;;0.90;99.90;;;;;;5036885;28;20251;-76
2020/12/31 03:33:48;;;;;;;1.40;1.30;;;0.80;99.90;;;;;;5035261;28;20241;-75
2020/12/31 03:36:13;;;;;;;1.43;1.13;;;0.90;99.90;;;;;;5034299;28;20313;-75
2020/12/31 03:38:39;;;;;;;1.20;1.10;;;0.90;99.90;;;;;;5036526;28;20613;-76
2020/12/31 03:41:04;;;;;;;1.23;1.07;;;0.80;99.90;;;;;;5037550;28;20182;-76
2020/12/31 03:43:30;;;;;;;2.73;1.27;;;0.80;99.90;;;;;;5036491;28;20225;-76
2020/12/31 03:45:55;;;;;;;1.27;1.13;;;0.70;99.90;;;;;;5051433;28;20212;-76
2020/12/31 03:48:21;;;;;;;1.50;0.80;;;0.70;99.90;;;;;;5034809;28;20240;-76
2020/12/31 03:50:47;;;;;;;1.37;1.20;;;0.70;99.90;;;;;;5036187;28;20190;-75
2020/12/31 03:53:12;;;;;;;1.33;0.93;;;0.60;99.90;;;;;;5036828;28;20197;-75
2020/12/31 03:55:38;;;;;;;1.43;1.30;;;0.60;99.90;;;;;;5036266;28;20699;-75
2020/12/31 03:58:03;;;;;;;0.73;0.73;;;0.50;99.90;;;;;;5035452;28;21016;-76
2020/12/31 04:00:29;;;;;;;1.10;1.00;;;0.60;99.90;;;;;;5035790;28;20555;-75
2020/12/31 04:02:55;;;;;;;1.30;1.00;;;0.50;99.90;;;;;;5035438;28;20621;-76
2020/12/31 04:05:20;;;;;;;2.03;1.10;;;0.50;99.90;;;;;;5036681;28;20214;-75
2020/12/31 04:07:46;;;;;;;1.37;1.20;;;0.60;99.90;;;;;;5034764;28;20655;-76
2020/12/31 04:10:12;;;;;;;1.33;1.23;;;0.60;99.90;;;;;;5035609;28;20209;-76
2020/12/31 04:12:37;;;;;;;1.63;1.43;;;0.60;99.90;;;;;;5036922;28;20241;-76
2020/12/31 04:15:03;;;;;;;1.60;1.50;;;0.70;99.90;;;;;;5050728;28;20584;-75
2020/12/31 04:17:29;;;;;;;1.53;1.17;;;0.70;99.90;;;;;;5036138;28;20213;-75
2020/12/31 04:19:54;;;;;;;1.93;1.30;;;0.80;99.90;;;;;;5035218;28;20183;-76
2020/12/31 04:22:20;;;;;;;0.53;0.53;;;0.90;99.90;;;;;;5037263;28;20195;-76
2020/12/31 04:24:46;;;;;;;1.70;1.50;;;0.90;99.90;;;;;;5035545;28;20628;-76
2020/12/31 04:27:11;;;;;;;1.30;1.20;;;1.00;99.90;;;;;;5034844;28;20258;-75
2020/12/31 04:29:37;;;;;;;1.93;1.77;;;1.20;99.90;;;;;;5035600;28;20278;-75
2020/12/31 04:32:03;;;;;;;1.93;1.70;;;1.20;99.90;;;;;;5033032;28;20281;-74
2020/12/31 04:34:29;;;;;;;1.40;1.30;;;1.40;99.90;;;;;;5034720;28;20200;-76
2020/12/31 04:36:54;;;;;;;1.00;1.00;;;1.50;99.90;;;;;;5034934;28;20338;-75
2020/12/31 04:39:20;;;;;;;1.17;1.07;;;1.70;99.90;;;;;;5036597;28;20186;-77
2020/12/31 04:41:45;;;;;;;1.33;1.20;;;1.80;99.90;;;;;;5034636;28;20256;-76
2020/12/31 04:44:14;;;;;;;0.87;0.87;;;1.80;99.90;;;;;;5035901;28;20286;-75
2020/12/31 04:46:41;;;;;;;1.77;1.40;;;1.70;99.90;;;;;;5035369;28;20214;-76
2020/12/31 04:49:20;;;;;;;1.73;1.40;;;1.80;99.90;;;;;;5035306;28;20259;-76
2020/12/31 04:51:52;;;;;;;1.33;0.93;;;1.80;99.90;;;;;;5051484;28;20598;-75
2020/12/31 04:54:19;;;;;;;1.33;1.23;;;1.80;99.90;;;;;;5035950;28;20205;-76
2020/12/31 04:56:46;;;;;;;1.30;1.20;;;1.90;99.90;;;;;;5036140;28;20225;-76
2020/12/31 04:59:12;;;;;;;1.33;1.23;;;1.80;99.90;;;;;;5036023;28;20186;-76
2020/12/31 05:01:40;;;;;;;1.23;1.13;;;1.80;99.90;;;;;;5037366;28;20198;-76
2020/12/31 05:04:06;;;;;;;1.50;1.40;;;1.90;99.90;;;;;;5036213;28;20299;-75
2020/12/31 05:06:35;;;;;;;2.53;1.77;;;2.00;99.90;;;;;;5036463;28;20294;-76
2020/12/31 05:09:18;;;;;;;1.23;1.10;;;2.10;99.90;;;;;;5036833;28;20240;-76
2020/12/31 05:11:48;;;;;;;1.83;1.10;;;2.10;99.90;;;;;;5036660;28;20309;-76
2020/12/31 05:14:32;;;;;;;1.33;1.00;;;2.20;99.90;;;;;;5034787;28;20185;-75
2020/12/31 05:17:15;;;;;;;1.70;1.37;;;2.20;99.90;;;;;;5036777;28;20199;-76
2020/12/31 05:19:41;;;;;;;1.50;1.40;;;2.30;99.90;;;;;;5034380;28;20195;-76
2020/12/31 05:22:09;;;;;;;1.83;1.67;;;2.30;99.90;;;;;;5035432;28;20191;-76
2020/12/31 05:24:35;;;;;;;1.53;1.43;;;2.30;99.90;;;;;;5051854;28;20186;-76
2020/12/31 05:27:24;;;;;;;1.53;1.40;;;2.30;99.90;;;;;;5036207;28;20252;-76
2020/12/31 05:29:57;;;;;;;1.83;0.97;;;2.20;99.90;;;;;;5036457;28;20174;-75
2020/12/31 05:32:25;;;;;;;1.40;1.20;;;2.30;99.90;;;;;;5034582;28;20598;-76
2020/12/31 05:34:52;;;;;;;1.20;0.80;;;2.30;99.90;;;;;;5035395;28;20207;-76
2020/12/31 05:37:19;;;;;;;1.67;1.07;;;2.30;99.90;;;;;;5034269;28;20267;-76
2020/12/31 05:40:07;;;;;;;1.33;1.23;;;2.20;99.90;;;;;;5035555;28;20710;-76
2020/12/31 05:42:35;;;;;;;3.43;1.47;;;2.20;99.90;;;;;;5035458;28;20190;-76
2020/12/31 05:45:03;;;;;;;2.17;1.20;;;2.00;99.90;;;;;;5033417;28;20217;-76
2020/12/31 05:47:28;;;;;;;2.50;1.40;;;2.00;99.90;;;;;;5035530;28;20189;-75
2020/12/31 05:49:54;;;;;;;1.40;1.20;;;2.00;99.90;;;;;;5034963;28;20187;-76
2020/12/31 05:52:33;;;;;;;3.13;1.87;;;1.90;99.90;;;;;;5034767;28;20667;-76
2020/12/31 05:55:01;;;;;;;1.73;1.20;;;1.90;99.90;;;;;;5050102;28;20242;-75
2020/12/31 05:57:43;;;;;;;2.00;1.80;;;2.00;99.90;;;;;;5035498;28;20206;-76
2020/12/31 06:00:18;;;;;;;1.63;1.20;;;2.10;99.90;;;;;;5033307;28;20734;-76
2020/12/31 06:02:48;;;;;;;2.00;1.23;;;2.10;99.90;;;;;;5030834;28;20185;-76
2020/12/31 06:05:18;;;;;;;2.37;1.90;;;2.10;99.90;;;;;;5033048;28;20257;-75
2020/12/31 06:07:51;;;;;;;1.67;1.20;;;2.10;99.90;;;;;;5032439;28;20179;-76
2020/12/31 06:10:28;;;;;;;2.07;1.30;;;2.20;99.90;;;;;;5033321;28;20814;-76
2020/12/31 06:12:58;;;;;;;2.33;1.50;;;2.00;99.90;;;;;;5034187;28;20190;-76
2020/12/31 06:15:37;;;;;;;3.27;0.90;;;2.00;99.90;;;;;;5032444;28;20194;-74
2020/12/31 06:18:05;;;;;;;2.07;1.80;;;2.00;99.90;;;;;;5031790;28;20252;-76
2020/12/31 06:20:38;;;;;;;1.47;1.07;;;1.90;99.90;;;;;;5033323;28;20186;-76
2020/12/31 06:23:08;;;;;;;1.23;1.07;;;2.00;99.90;;;;;;5032868;28;20270;-75
2020/12/31 06:25:35;;;;;;;1.53;1.20;;;2.10;99.90;;;;;;5032298;28;20672;-76
2020/12/31 06:28:05;;;;;;;2.20;1.37;;;2.10;99.90;;;;;;5034963;28;20183;-76
2020/12/31 06:30:31;;;;;;;2.30;1.67;;;2.00;99.90;;;;;;5033189;28;20217;-75
2020/12/31 06:33:00;;;;;;;1.73;1.23;;;1.90;99.90;;;;;;5036704;28;20213;-75
2020/12/31 06:35:26;;;;;;;1.33;1.10;;;1.90;99.90;;;;;;5036715;28;20206;-75
2020/12/31 06:37:58;;;;;;;1.13;1.10;;;1.90;99.90;;;;;;5036593;28;20206;-76
2020/12/31 06:40:24;;;;;;;1.70;1.27;;;1.70;99.90;;;;;;5036437;28;20261;-76
2020/12/31 06:43:06;;;;;;;1.60;1.20;;;1.70;99.90;;;;;;5034864;28;20821;-76
2020/12/31 06:45:33;;;;;;;1.47;1.10;;;1.60;99.90;;;;;;5035649;28;20202;-76
2020/12/31 06:47:58;;;;;;;1.63;1.20;;;1.50;99.90;;;;;;5036107;28;20237;-76
2020/12/31 06:50:57;;;;;;;2.47;1.57;;;1.40;99.90;;;;;;5034410;28;20190;-76
2020/12/31 06:53:34;;;;;;;4.70;1.77;;;1.40;99.90;;;;;;5034958;28;20217;-76
2020/12/31 06:56:05;;;;;;;2.30;1.30;;;1.20;99.90;;;;;;5036603;28;20247;-75
2020/12/31 06:58:31;;;;;;;1.20;1.10;;;1.20;99.90;;;;;;5034852;28;20198;-76
2020/12/31 07:00:57;;;;;;;2.03;1.60;;;1.10;99.90;;;;;;5036031;28;20187;-76
2020/12/31 07:03:41;;;;;;;1.90;1.80;;;1.10;99.90;;;;;;5036396;28;20189;-76
2020/12/31 07:06:22;;;;;;;1.10;1.00;;;1.10;99.90;;;;;;5034560;28;20288;-76
2020/12/31 07:08:55;;;;;;;1.30;1.20;;;1.10;99.90;;;;;;5050412;28;20204;-76
2020/12/31 07:11:37;;;;;;;2.23;1.10;;;1.00;99.90;;;;;;5033448;28;20186;-75
2020/12/31 07:14:25;;;;;;;1.77;1.40;;;1.00;99.90;;;;;;5035361;28;20270;-75
2020/12/31 07:17:02;;;;;;;2.10;1.40;;;0.90;99.90;;;;;;5033621;28;20221;-76
2020/12/31 07:19:45;;;;;;;3.77;2.30;;;0.90;99.90;;;;;;5038184;28;20722;-75
2020/12/31 07:22:10;;;;;;;1.97;1.50;;;0.80;99.90;;;;;;5038696;28;20174;-77
2020/12/31 07:25:07;;;;;;;1.40;1.17;;;0.70;99.90;;;;;;5036124;28;20186;-75
2020/12/31 07:27:39;;;;;;;1.37;1.20;;;0.70;99.90;;;;;;5021989;28;20221;-76
2020/12/31 07:30:07;;;;;;;1.63;1.43;;;0.70;99.90;;;;;;5037083;28;20248;-76
2020/12/31 07:32:50;;;;;;;2.03;1.47;;;0.70;99.90;;;;;;5038901;28;20189;-76
2020/12/31 07:35:26;;;;;;;3.93;1.17;;;0.70;99.90;;;;;;5038620;28;20217;-77
2020/12/31 07:37:54;;;;;;;2.27;1.27;;;0.60;99.90;;;;;;5038015;28;20213;-76
2020/12/31 07:40:31;;;;;;;1.53;1.33;;;0.60;99.90;;;;;;5038092;28;20236;-76
2020/12/31 07:42:57;;;;;;;1.20;1.10;;;0.60;99.90;;;;;;5035765;28;20540;-76
2020/12/31 07:45:24;;;;;;;1.47;1.30;;;0.60;99.90;;;;;;5035112;28;20199;-76
2020/12/31 07:47:53;;;;;;;1.77;1.07;;;0.60;99.90;;;;;;5036303;28;20178;-75
2020/12/31 07:50:20;;;;;;;2.10;1.90;;;0.60;99.90;;;;;;5033747;28;20301;-75
2020/12/31 07:52:46;;;;;;;1.57;1.47;;;0.60;99.90;;;;;;5035164;28;20189;-75
2020/12/31 07:55:12;;;;;;;0.90;0.87;;;0.60;99.90;;;;;;5032838;28;20232;-75
2020/12/31 07:57:38;;;;;;;1.67;1.47;;;0.60;99.90;;;;;;5033585;28;20211;-76
2020/12/31 08:00:12;;;;;;;1.93;1.10;;;0.70;99.90;;;;;;5034262;28;20240;-75
2020/12/31 08:02:44;;;;;;;1.17;1.03;;;0.70;99.90;;;;;;5032591;28;20175;-75
2020/12/31 08:05:14;;;;;;;2.27;1.40;;;0.70;99.90;;;;;;5031827;28;20194;-75
2020/12/31 08:07:40;;;;;;;4.37;1.97;;;0.80;99.90;;;;;;5031757;28;20269;-75
2020/12/31 08:10:07;;;;;;;1.87;1.33;;;0.80;99.90;;;;;;5031108;28;20186;-76
2020/12/31 08:12:33;;;;;;;2.17;1.43;;;0.90;99.90;;;;;;5033409;28;20193;-75
2020/12/31 08:14:58;;;;;;;1.80;1.50;;;1.00;99.90;;;;;;5032777;28;20253;-75
2020/12/31 08:17:24;;;;;;;1.40;0.97;;;1.00;99.90;;;;;;5032700;28;20601;-75
2020/12/31 08:19:50;;;;;;;1.03;0.83;;;1.00;99.90;;;;;;5031873;28;20613;-76
2020/12/31 08:22:22;;;;;;;1.40;1.30;;;1.00;99.90;;;;;;5033186;28;20181;-75
2020/12/31 08:25:10;;;;;;;1.53;1.40;;;1.10;99.90;;;;;;5030958;28;20179;-75
2020/12/31 08:27:40;;;;;;;1.50;1.40;;;1.10;99.90;;;;;;5032438;28;20194;-76
2020/12/31 08:30:08;;;;;;;1.43;1.00;;;1.10;99.90;;;;;;5031011;28;20186;-75
2020/12/31 08:32:51;;;;;;;2.47;1.70;;;1.20;99.90;;;;;;5032003;28;20209;-76
2020/12/31 08:35:27;;;;;;;1.93;1.33;;;1.20;99.90;;;;;;5032315;28;20230;-75
2020/12/31 08:38:11;;;;;;;1.63;1.30;;;1.30;99.90;;;;;;5030725;28;20194;-75
2020/12/31 08:40:41;;;;;;;2.07;1.60;;;1.40;99.90;;;;;;5028360;28;20190;-75
2020/12/31 08:43:20;;;;;;;1.87;1.53;;;1.40;99.90;;;;;;5028935;28;20196;-76
2020/12/31 08:45:47;;;;;;;1.67;1.37;;;1.40;99.90;;;;;;5025158;28;20252;-75
2020/12/31 08:48:17;;;;;;;6.20;4.60;;;1.50;99.90;;;;;;5028895;28;20171;-75
2020/12/31 08:51:00;;;;;;;2.53;2.03;;;1.50;99.90;;;;;;5030829;28;20249;-76
2020/12/31 08:53:26;;;;;;;2.30;1.90;;;1.50;99.90;;;;;;5032164;28;20187;-76
2020/12/31 08:55:53;;;;;;;3.07;2.43;;;1.60;99.90;;;;;;5030468;28;20233;-76
2020/12/31 08:58:19;;;;;;;1.67;1.57;;;1.60;99.90;;;;;;5031704;28;20201;-75
2020/12/31 09:00:44;;;;;;;2.67;2.37;;;1.70;99.90;;;;;;5033903;28;20186;-76
2020/12/31 09:03:11;;;;;;;4.10;2.43;;;1.70;99.90;;;;;;5031661;28;20183;-76
2020/12/31 09:05:37;;;;;;;3.77;2.80;;;1.70;99.90;;;;;;5032771;28;20683;-75
2020/12/31 09:08:07;;;;;;;4.27;3.10;;;1.70;99.90;;;;;;5034398;28;20201;-75
2020/12/31 09:10:37;;;;;;;3.80;2.27;;;1.70;99.90;;;;;;5032692;28;20255;-75
2020/12/31 09:13:04;;;;;;;6.70;3.17;;;1.70;99.90;;;;;;5031623;28;20328;-76
2020/12/31 09:15:30;;;;;;;3.87;3.00;;;1.70;99.90;;;;;;5028912;28;20214;-74
2020/12/31 09:17:56;;;;;;;3.43;2.80;;;1.80;99.90;;;;;;5031564;28;20229;-76
2020/12/31 09:20:25;;;;;;;3.30;2.50;;;1.80;99.90;;;;;;5032090;28;20628;-75
2020/12/31 09:22:51;;;;;;;4.27;2.90;;;1.80;99.90;;;;;;5032450;28;20187;-76
2020/12/31 09:25:17;;;;;;;6.53;3.40;;;1.90;99.90;;;;;;5029934;28;20830;-76
2020/12/31 09:27:48;;;;;;;4.87;2.97;;;2.00;99.90;;;;;;5031483;28;20637;-75
2020/12/31 09:30:16;;;;;;;4.83;2.90;;;2.00;99.90;;;;;;5030091;28;20182;-75
2020/12/31 09:32:46;;;;;;;3.40;2.53;;;2.00;99.90;;;;;;5029664;28;20193;-75
2020/12/31 09:35:12;;;;;;;4.07;2.67;;;2.00;99.90;;;;;;5031129;28;21232;-75
2020/12/31 09:38:04;;;;;;;3.60;2.13;;;2.10;99.90;;;;;;5030069;28;20203;-75
2020/12/31 09:40:29;;;;;;;5.77;2.80;;;2.10;99.90;;;;;;5028979;28;20194;-76
2020/12/31 09:42:55;;;;;;;4.47;3.07;;;2.20;99.90;;;;;;5027430;28;20257;-75
2020/12/31 09:45:20;;;;;;;7.87;5.40;;;2.30;99.90;;;;;;5046034;28;21342;-75
2020/12/31 09:47:46;;;;;;;8.23;5.13;;;2.30;99.90;;;;;;5025807;28;20200;-76
2020/12/31 09:50:12;;;;;;;2.90;1.83;;;2.40;99.90;;;;;;5032115;28;20216;-75
2020/12/31 09:52:39;;;;;;;5.37;2.33;;;2.40;99.90;;;;;;5029374;28;20544;-73
2020/12/31 09:55:08;;;;;;;3.07;2.67;;;2.50;99.90;;;;;;5030056;28;20702;-75
2020/12/31 09:57:36;;;;;;;4.93;3.33;;;2.50;99.90;;;;;;5041139;28;20218;-75
2020/12/31 10:00:05;;;;;;;4.90;3.40;;;2.60;99.90;;;;;;5031909;28;20676;-76
2020/12/31 10:02:32;;;;;;;6.53;3.93;;;2.60;99.90;;;;;;5026423;28;20183;-76
2020/12/31 10:04:59;;;;;;;6.40;4.03;;;2.70;99.90;;;;;;5026088;28;20229;-75
2020/12/31 10:07:25;;;;;;;5.47;3.43;;;2.80;99.90;;;;;;5025524;28;20186;-77
2020/12/31 10:09:51;;;;;;;3.67;2.77;;;2.90;99.90;;;;;;5036522;28;20186;-75
2020/12/31 10:12:16;;;;;;;2.30;1.60;;;3.00;99.90;;;;;;5035394;28;20194;-75
2020/12/31 10:15:02;;;;;;;5.00;3.83;;;3.00;99.90;;;;;;5035499;28;20368;-75
2020/12/31 10:17:28;;;;;;;3.23;2.57;;;3.00;99.90;;;;;;5038017;28;20229;-76
2020/12/31 10:19:56;;;;;;;6.23;4.87;;;3.10;99.90;;;;;;5034684;28;20222;-74
2020/12/31 10:22:22;;;;;;;17.27;9.17;;;3.10;99.90;;;;;;5036373;28;20182;-75
2020/12/31 10:24:47;;;;;;;7.63;5.60;;;3.10;99.90;;;;;;5033110;28;20201;-75
2020/12/31 10:27:13;;;;;;;6.17;3.40;;;3.10;99.90;;;;;;5034386;28;20202;-75
2020/12/31 10:29:39;;;;;;;4.37;3.30;;;3.10;99.90;;;;;;5035902;28;20267;-76
2020/12/31 10:32:05;;;;;;;3.60;2.70;;;3.20;99.90;;;;;;5036600;28;20185;-76
2020/12/31 10:34:30;;;;;;;2.50;2.30;;;3.20;99.90;;;;;;5037806;28;20207;-76
2020/12/31 10:36:57;;;;;;;2.97;2.60;;;3.20;99.90;;;;;;5035922;28;20766;-75
2020/12/31 10:39:24;;;;;;;5.37;3.17;;;3.10;99.90;;;;;;5036015;28;20206;-74
2020/12/31 10:41:50;;;;;;;3.83;2.27;;;3.10;99.90;;;;;;5037676;28;20213;-75
2020/12/31 10:44:17;;;;;;;5.90;3.07;;;3.00;99.90;;;;;;5035359;28;20182;-72
2020/12/31 10:46:43;;;;;;;2.57;1.80;;;3.10;99.90;;;;;;5034578;28;20706;-73
2020/12/31 10:49:08;;;;;;;4.93;3.30;;;3.10;99.90;;;;;;5033645;28;20182;-73
2020/12/31 10:51:39;;;;;;;2.80;2.10;;;3.10;99.90;;;;;;5033647;28;20187;-73
2020/12/31 10:54:05;;;;;;;3.60;2.53;;;3.10;99.90;;;;;;5033176;28;21229;-72
2020/12/31 10:56:31;;;;;;;3.23;2.53;;;3.20;99.90;;;;;;5038032;28;20245;-73
2020/12/31 10:58:57;;;;;;;3.53;1.70;;;3.20;99.90;;;;;;5037076;28;20186;-73
2020/12/31 11:01:23;;;;;;;3.33;2.67;;;3.30;99.90;;;;;;5036825;28;20254;-73
2020/12/31 11:03:49;;;;;;;3.00;2.47;;;3.30;99.90;;;;;;5036641;28;20273;-76
2020/12/31 11:06:24;;;;;;;3.27;2.57;;;3.30;99.90;;;;;;5035173;28;20260;-76
2020/12/31 11:08:50;;;;;;;3.03;2.40;;;3.40;99.90;;;;;;5030499;28;20700;-76
2020/12/31 11:11:26;;;;;;;1.83;1.67;;;3.40;99.90;;;;;;5028513;28;20234;-76
2020/12/31 11:13:53;;;;;;;2.23;2.00;;;3.50;99.90;;;;;;5032804;28;20301;-77
2020/12/31 11:16:18;;;;;;;2.63;2.33;;;3.50;99.90;;;;;;5037321;28;20431;-76
2020/12/31 11:18:44;;;;;;;3.53;2.17;;;3.40;99.90;;;;;;5042861;28;20178;-76
2020/12/31 11:21:14;;;;;;;2.83;2.03;;;3.40;99.90;;;;;;5024337;28;20652;-76
2020/12/31 11:23:40;;;;;;;3.93;2.17;;;3.40;99.90;;;;;;5034331;28;20652;-76
2020/12/31 11:26:20;;;;;;;3.40;2.27;;;3.50;99.90;;;;;;5023315;28;20588;-76
2020/12/31 11:28:47;;;;;;;2.30;1.80;;;3.50;99.90;;;;;;5034731;28;20252;-76
2020/12/31 11:31:14;;;;;;;3.33;2.37;;;3.50;99.90;;;;;;5035540;28;20433;-76
2020/12/31 11:33:40;;;;;;;2.00;1.70;;;3.50;99.90;;;;;;5032282;28;20236;-76
2020/12/31 11:36:08;;;;;;;3.97;2.47;;;3.50;99.90;;;;;;5033617;28;20230;-76
2020/12/31 11:38:33;;;;;;;2.30;2.10;;;3.50;99.90;;;;;;5019108;28;20187;-77
2020/12/31 11:41:00;;;;;;;3.53;2.87;;;3.50;99.90;;;;;;5026637;28;20191;-76
2020/12/31 11:43:26;;;;;;;4.40;2.87;;;3.50;99.90;;;;;;5031209;28;20193;-76
2020/12/31 11:45:52;;;;;;;2.83;2.43;;;3.50;99.90;;;;;;5041573;28;20198;-76
2020/12/31 11:48:18;;;;;;;2.30;2.10;;;3.50;99.90;;;;;;5028192;28;20225;-75
2020/12/31 11:50:44;;;;;;;3.53;2.33;;;3.40;99.90;;;;;;5025952;28;20258;-76
2020/12/31 11:53:09;;;;;;;6.23;4.13;;;3.40;99.90;;;;;;5034624;28;20676;-76
2020/12/31 11:55:35;;;;;;;14.13;7.00;;;3.50;99.90;;;;;;5038483;28;20250;-76
2020/12/31 11:58:00;;;;;;;15.33;6.40;;;3.50;99.90;;;;;;5035035;28;20225;-76
2020/12/31 12:00:26;;;;;;;13.93;6.30;;;3.50;99.90;;;;;;5033860;28;20182;-76
2020/12/31 12:02:51;;;;;;;7.13;4.27;;;3.50;99.90;;;;;;5034022;28;20248;-76
2020/12/31 12:05:17;;;;;;;38.03;18.40;;;3.60;99.90;;;;;;5034704;28;20310;-76
2020/12/31 12:07:44;;;;;;;17.90;8.17;;;3.50;99.90;;;;;;5034784;28;20177;-74
2020/12/31 12:10:10;;;;;;;6.13;5.13;;;3.50;99.90;;;;;;5034853;28;20207;-75
2020/12/31 12:12:36;;;;;;;5.43;3.33;;;3.60;99.90;;;;;;5033814;28;20261;-74
2020/12/31 12:15:02;;;;;;;3.00;2.73;;;3.60;99.90;;;;;;5044577;28;20963;-76
2020/12/31 12:17:28;;;;;;;3.93;3.23;;;3.60;99.90;;;;;;5033233;28;20237;-76
2020/12/31 12:19:54;;;;;;;3.03;2.83;;;3.60;99.90;;;;;;5032690;28;20831;-76
2020/12/31 12:22:19;;;;;;;2.50;2.13;;;3.60;99.90;;;;;;5031434;28;20205;-75
2020/12/31 12:24:45;;;;;;;2.33;2.00;;;3.60;99.90;;;;;;5048544;28;20689;-76
2020/12/31 12:27:10;;;;;;;2.60;2.30;;;3.70;99.90;;;;;;5031210;28;20187;-76
2020/12/31 12:29:36;;;;;;;2.60;2.40;;;3.70;99.90;;;;;;5033350;28;20194;-76
2020/12/31 12:32:01;;;;;;;3.43;2.77;;;3.70;99.90;;;;;;5033541;28;20194;-76
2020/12/31 12:34:27;;;;;;;2.77;2.33;;;3.70;99.90;;;;;;5032615;28;20205;-77
2020/12/31 12:36:52;;;;;;;2.53;1.87;;;3.70;99.90;;;;;;5032841;28;20222;-76
2020/12/31 12:39:18;;;;;;;1.70;1.57;;;3.70;99.90;;;;;;5032127;28;20191;-76
2020/12/31 12:41:44;;;;;;;1.47;1.37;;;3.70;99.90;;;;;;5032570;28;20189;-76
2020/12/31 12:44:11;;;;;;;2.63;2.43;;;3.70;99.90;;;;;;5032550;28;20562;-75
2020/12/31 12:46:36;;;;;;;2.53;2.07;;;3.70;99.90;;;;;;5032380;28;20561;-76
2020/12/31 12:49:03;;;;;;;2.00;1.47;;;3.80;99.90;;;;;;5047567;28;20865;-76
2020/12/31 12:51:35;;;;;;;2.60;1.87;;;3.70;99.90;;;;;;5033863;28;20188;-75
2020/12/31 12:54:01;;;;;;;1.70;1.33;;;3.80;99.90;;;;;;5049682;28;20225;-76
2020/12/31 12:56:26;;;;;;;2.67;2.23;;;3.80;99.90;;;;;;5032173;28;20266;-75
2020/12/31 12:58:53;;;;;;;5.00;4.50;;;3.80;99.90;;;;;;5034036;28;20309;-76
2020/12/31 13:01:18;;;;;;;2.17;1.80;;;3.90;99.90;;;;;;5029633;28;20281;-76
2020/12/31 13:03:44;;;;;;;1.93;1.63;;;3.90;99.90;;;;;;5034389;28;20190;-76